Time;durP1;ratioP1;P1;durP2;ratioP2;P2;SDS_P1;SDS_P2;PMS_P1;PMS_P2;Temp;Humidity;BMP_temperature;BMP_pressure;BME280_temperature;BME280_humidity;BME280_pressure;Samples;Min_cycle;Max_cycle;Signal;HPM_P1;HPM_P2
2023/09/07 00:00:21;;;;;;;8.77;7.88;;;;;;;18.15;72.83;95283.75;5049933;28;20079;-76
2023/09/07 00:02:46;;;;;;;9.43;8.00;;;;;;;18.07;73.06;95287.19;5049493;28;20037;-76
2023/09/07 00:05:13;;;;;;;9.20;8.18;;;;;;;18.04;73.10;95288.31;5033394;28;20044;-76
2023/09/07 00:07:38;;;;;;;8.65;7.72;;;;;;;18.01;73.32;95283.41;5050120;28;20119;-76
2023/09/07 00:10:04;;;;;;;9.13;7.93;;;;;;;18.28;72.12;95281.47;5033320;28;20021;-76
2023/09/07 00:12:30;;;;;;;13.15;9.02;;;;;;;18.15;72.54;95283.75;5050007;28;20487;-76
2023/09/07 00:14:55;;;;;;;9.38;8.13;;;;;;;18.17;73.00;95284.41;5053931;28;20033;-76
2023/09/07 00:17:21;;;;;;;9.85;7.65;;;;;;;18.33;73.51;95279.19;5037520;28;20516;-76
2023/09/07 00:19:49;;;;;;;9.02;8.02;;;;;;;18.29;72.04;95283.91;5055138;28;20021;-76
2023/09/07 00:22:14;;;;;;;10.38;7.43;;;;;;;18.21;72.82;95290.97;5053615;28;20040;-76
2023/09/07 00:24:40;;;;;;;8.27;7.47;;;;;;;18.22;71.97;95288.22;5037130;28;20028;-76
2023/09/07 00:27:07;;;;;;;9.73;8.10;;;;;;;18.23;73.20;95291.66;5020611;28;20044;-76
2023/09/07 00:29:36;;;;;;;9.48;8.45;;;;;;;18.24;73.84;95280.13;5037376;28;20084;-76
2023/09/07 00:32:01;;;;;;;11.02;8.18;;;;;;;18.26;74.32;95286.06;5053881;28;20511;-76
2023/09/07 00:34:27;;;;;;;9.15;8.05;;;;;;;18.31;72.73;95281.97;5053263;28;20033;-76
2023/09/07 00:36:52;;;;;;;8.80;7.90;;;;;;;17.99;72.16;95245.09;5053721;28;20400;-76
2023/09/07 00:39:17;;;;;;;8.85;7.95;;;;;;;18.13;72.47;95280.44;5053410;28;20502;-76
2023/09/07 00:41:43;;;;;;;9.20;8.25;;;;;;;18.13;73.03;95281.28;5019851;28;20043;-76
2023/09/07 00:44:08;;;;;;;9.13;7.88;;;;;;;18.05;72.92;95263.69;5036824;28;20040;-76
2023/09/07 00:46:34;;;;;;;10.00;8.40;;;;;;;18.08;73.41;95278.31;5053353;28;20498;-76
2023/09/07 00:48:59;;;;;;;9.45;8.45;;;;;;;18.15;72.95;95274.06;5054285;28;20029;-76
2023/09/07 00:51:24;;;;;;;9.88;8.88;;;;;;;18.13;73.38;95278.63;5036525;28;20036;-76
2023/09/07 00:53:50;;;;;;;9.57;8.68;;;;;;;18.18;73.66;95276.34;5036348;28;20502;-77
2023/09/07 00:56:15;;;;;;;9.10;8.02;;;;;;;18.25;72.70;95268.66;5052964;28;20433;-76
2023/09/07 00:58:41;;;;;;;10.57;8.93;;;;;;;18.21;73.26;95269.94;5053069;28;20033;-76
2023/09/07 01:01:06;;;;;;;9.45;8.55;;;;;;;18.21;73.12;95269.94;5019560;28;20048;-76
2023/09/07 01:03:32;;;;;;;10.98;8.57;;;;;;;18.25;73.37;95268.66;5052847;28;20021;-76
2023/09/07 01:06:15;;;;;;;11.63;8.95;;;;;;;18.20;72.88;95270.94;5054151;28;20041;-76
2023/09/07 01:08:51;;;;;;;11.52;9.57;;;;;;;18.11;73.33;95278.00;5037715;28;20025;-76
2023/09/07 01:11:20;;;;;;;10.18;8.82;;;;;;;18.05;73.64;95276.00;5019852;28;20041;-76
2023/09/07 01:13:45;;;;;;;10.48;9.25;;;;;;;18.11;73.92;95269.28;5052609;28;20115;-76
2023/09/07 01:16:11;;;;;;;10.15;8.80;;;;;;;18.21;73.66;95276.03;5052352;28;20159;-76
2023/09/07 01:18:37;;;;;;;10.50;8.77;;;;;;;18.06;75.08;95277.66;5052739;28;20498;-76
2023/09/07 01:21:05;;;;;;;10.10;8.93;;;;;;;18.03;75.12;95280.63;5019255;28;20399;-76
2023/09/07 01:23:30;;;;;;;9.98;8.52;;;;;;;18.04;74.72;95271.72;5036028;28;20025;-76
2023/09/07 01:25:56;;;;;;;10.25;9.00;;;;;;;18.08;75.54;95278.31;5051319;28;20483;-76
2023/09/07 01:28:21;;;;;;;9.68;8.52;;;;;;;18.03;75.33;95270.91;5053738;28;20021;-76
2023/09/07 01:30:47;;;;;;;10.00;9.00;;;;;;;18.03;75.17;95272.72;5035927;28;20052;-76
2023/09/07 01:33:12;;;;;;;9.82;8.82;;;;;;;18.06;75.70;95280.28;5052187;28;20132;-76
2023/09/07 01:35:37;;;;;;;10.88;9.10;;;;;;;17.83;76.63;95270.38;5052181;28;20446;-77
2023/09/07 01:38:03;;;;;;;11.43;9.43;;;;;;;17.80;76.45;95275.13;5035722;28;20499;-76
2023/09/07 01:40:29;;;;;;;11.23;9.18;;;;;;;17.70;77.26;95272.63;5051957;28;20391;-76
2023/09/07 01:42:54;;;;;;;11.32;9.32;;;;;;;17.75;77.15;95274.78;5052017;28;20029;-76
2023/09/07 01:45:19;;;;;;;12.38;9.38;;;;;;;17.67;77.56;95274.75;5053198;28;20029;-76
2023/09/07 01:47:45;;;;;;;10.35;9.02;;;;;;;17.64;77.73;95274.06;5035631;28;20479;-76
2023/09/07 01:50:10;;;;;;;11.45;10.15;;;;;;;17.62;77.98;95273.41;5018942;28;20525;-76
2023/09/07 01:52:36;;;;;;;11.43;10.23;;;;;;;17.55;78.00;95269.78;5051978;28;20040;-76
2023/09/07 01:55:01;;;;;;;12.00;9.07;;;;;;;17.70;77.59;95271.78;5053197;28;20021;-76
2023/09/07 01:57:27;;;;;;;12.20;9.98;;;;;;;17.51;77.22;95276.31;5052195;28;20039;-76
2023/09/07 01:59:52;;;;;;;13.23;9.98;;;;;;;17.34;77.18;95254.41;5035201;28;20013;-76
2023/09/07 02:02:18;;;;;;;10.80;9.70;;;;;;;17.56;77.98;95273.22;5051798;28;20044;-76
2023/09/07 02:04:45;;;;;;;12.25;9.85;;;;;;;17.51;77.43;95265.00;5051868;28;20017;-76
2023/09/07 02:07:11;;;;;;;11.05;9.63;;;;;;;17.62;76.75;95268.16;5035801;28;20479;-76
2023/09/07 02:09:37;;;;;;;13.82;10.05;;;;;;;17.56;77.41;95273.22;5051843;28;20108;-76
2023/09/07 02:12:03;;;;;;;10.93;9.82;;;;;;;17.61;76.75;95263.88;5051521;28;20037;-76
2023/09/07 02:14:29;;;;;;;10.68;9.55;;;;;;;17.59;77.33;95262.41;5051597;28;20032;-76
2023/09/07 02:16:54;;;;;;;13.18;10.07;;;;;;;17.46;76.89;95264.63;5051620;28;20518;-76
2023/09/07 02:19:22;;;;;;;11.60;10.40;;;;;;;17.61;76.95;95268.31;5051467;28;20033;-76
2023/09/07 02:21:48;;;;;;;10.85;9.75;;;;;;;17.67;76.58;95275.56;5052759;28;20052;-76
2023/09/07 02:24:13;;;;;;;10.90;9.80;;;;;;;17.74;76.26;95275.72;5034688;28;20048;-76
2023/09/07 02:26:44;;;;;;;10.68;9.43;;;;;;;17.80;76.94;95273.34;5051472;28;20045;-76
2023/09/07 02:29:10;;;;;;;10.68;9.38;;;;;;;17.78;76.83;95275.28;5035549;28;20067;-76
2023/09/07 02:31:35;;;;;;;11.90;9.88;;;;;;;17.73;77.42;95267.03;5034653;28;20257;-76
2023/09/07 02:34:01;;;;;;;10.82;9.68;;;;;;;17.78;76.80;95272.66;5018101;28;20028;-76
2023/09/07 02:36:27;;;;;;;11.93;9.80;;;;;;;17.74;75.90;95267.84;5051370;28;20083;-76
2023/09/07 02:38:52;;;;;;;11.60;10.40;;;;;;;17.59;76.23;95257.97;5034544;28;20398;-76
2023/09/07 02:41:18;;;;;;;11.13;9.60;;;;;;;17.63;76.81;95267.19;5052043;28;20040;-76
2023/09/07 02:43:43;;;;;;;10.43;9.35;;;;;;;17.63;76.96;95253.19;5034382;28;20029;-76
2023/09/07 02:46:08;;;;;;;11.15;9.95;;;;;;;17.62;77.44;95249.75;5050961;28;20033;-76
2023/09/07 02:48:34;;;;;;;11.65;10.50;;;;;;;17.57;77.57;95248.59;5050992;28;20398;-76
2023/09/07 02:51:00;;;;;;;10.70;9.65;;;;;;;17.78;77.43;95282.34;5034019;28;20090;-76
2023/09/07 02:53:25;;;;;;;11.07;9.55;;;;;;;17.79;77.68;95276.94;5034382;28;20029;-76
2023/09/07 02:55:51;;;;;;;13.15;9.98;;;;;;;17.74;78.05;95281.81;5050890;28;20029;-76
2023/09/07 02:58:16;;;;;;;12.30;10.77;;;;;;;17.55;78.25;95282.06;5050771;28;20036;-76
2023/09/07 03:00:44;;;;;;;14.38;10.43;;;;;;;17.51;78.90;95288.63;5033877;28;20029;-75
2023/09/07 03:03:10;;;;;;;12.52;11.10;;;;;;;17.44;79.20;95291.06;5034453;28;20032;-76
2023/09/07 03:05:35;;;;;;;13.45;11.15;;;;;;;17.46;79.32;95285.66;5050766;28;20029;-76
2023/09/07 03:08:00;;;;;;;14.35;12.07;;;;;;;17.32;79.56;95271.31;5051985;28;20025;-76
2023/09/07 03:10:27;;;;;;;12.27;10.98;;;;;;;17.38;80.02;95283.81;5033554;28;20498;-76
2023/09/07 03:12:54;;;;;;;13.55;12.18;;;;;;;17.23;80.05;95278.31;5050833;28;20033;-76
2023/09/07 03:15:20;;;;;;;16.58;12.57;;;;;;;17.28;80.29;95286.56;5050724;28;20036;-75
2023/09/07 03:17:45;;;;;;;15.77;13.20;;;;;;;17.25;80.09;95286.06;5017813;28;20025;-76
2023/09/07 03:20:13;;;;;;;14.48;12.98;;;;;;;17.12;80.18;95270.72;5033806;28;20032;-76
2023/09/07 03:22:43;;;;;;;13.93;12.48;;;;;;;17.29;80.61;95282.13;5050714;28;20098;-76
2023/09/07 03:25:09;;;;;;;14.48;12.88;;;;;;;17.30;80.01;95281.13;5033996;28;20040;-76
2023/09/07 03:27:35;;;;;;;14.50;13.00;;;;;;;17.16;80.05;95278.16;5050715;28;20071;-76
2023/09/07 03:30:01;;;;;;;14.93;13.32;;;;;;;17.12;80.28;95271.53;5050033;28;20474;-75
2023/09/07 03:32:31;;;;;;;15.38;13.68;;;;;;;17.24;80.04;95279.97;5050292;28;20028;-76
2023/09/07 03:34:57;;;;;;;14.82;12.73;;;;;;;17.23;80.31;95275.69;5051502;28;20480;-76
2023/09/07 03:37:22;;;;;;;14.73;12.98;;;;;;;17.33;80.63;95279.03;5051924;28;20033;-76
2023/09/07 03:39:48;;;;;;;14.38;12.95;;;;;;;17.07;80.11;95246.75;5033310;28;20403;-76
2023/09/07 03:42:13;;;;;;;14.43;12.57;;;;;;;17.34;79.25;95282.50;5033814;28;20033;-76
2023/09/07 03:44:39;;;;;;;14.75;13.10;;;;;;;17.36;79.52;95278.72;5051450;28;20039;-76
2023/09/07 03:47:05;;;;;;;15.00;13.40;;;;;;;17.25;79.52;95286.06;5017063;28;20045;-76
2023/09/07 03:49:30;;;;;;;14.75;13.20;;;;;;;17.36;79.23;95291.84;5032831;28;20168;-76
2023/09/07 03:51:56;;;;;;;16.30;13.00;;;;;;;17.27;79.28;95289.34;5051656;28;20029;-76
2023/09/07 03:54:21;;;;;;;14.30;12.85;;;;;;;17.32;79.08;95287.88;5033381;28;20415;-76
2023/09/07 03:56:46;;;;;;;14.55;12.80;;;;;;;17.42;79.33;95303.53;5050134;28;20037;-76
2023/09/07 03:59:12;;;;;;;15.32;13.27;;;;;;;17.43;78.86;95311.25;5050847;28;20479;-76
2023/09/07 04:01:37;;;;;;;14.85;13.07;;;;;;;17.49;79.33;95303.72;5056282;28;20036;-76
2023/09/07 04:04:03;;;;;;;14.98;13.40;;;;;;;17.10;79.29;95267.44;5032830;28;20074;-76
2023/09/07 04:06:28;;;;;;;16.02;12.98;;;;;;;17.21;80.02;95317.03;5048630;28;20474;-76
2023/09/07 04:08:53;;;;;;;15.77;13.38;;;;;;;17.17;80.11;95298.16;5039191;28;20060;-76
2023/09/07 04:11:19;;;;;;;16.33;13.63;;;;;;;17.24;80.50;95310.66;5043876;28;20039;-76
2023/09/07 04:13:44;;;;;;;18.05;14.15;;;;;;;17.26;80.31;95295.56;5069936;28;20028;-76
2023/09/07 04:16:10;;;;;;;15.98;14.05;;;;;;;17.31;80.10;95311.69;5060183;28;20044;-76
2023/09/07 04:18:35;;;;;;;15.57;12.40;;;;;;;17.26;80.42;95320.03;5078972;28;20417;-76
2023/09/07 04:21:07;;;;;;;15.27;13.63;;;;;;;17.20;80.49;95297.03;5061238;28;20036;-76
2023/09/07 04:23:34;;;;;;;15.43;13.93;;;;;;;17.15;80.92;95307.97;5032722;28;20421;-76
2023/09/07 04:26:06;;;;;;;16.42;14.00;;;;;;;17.12;81.26;95310.09;5065980;28;20037;-76
2023/09/07 04:28:32;;;;;;;15.23;13.60;;;;;;;17.13;81.11;95311.72;5062004;28;20047;-76
2023/09/07 04:30:57;;;;;;;16.13;14.40;;;;;;;17.11;81.26;95305.84;5074572;28;20052;-76
2023/09/07 04:33:22;;;;;;;15.10;13.45;;;;;;;17.26;80.48;95306.06;5031325;28;20413;-76
2023/09/07 04:35:48;;;;;;;14.95;12.88;;;;;;;17.18;79.73;95293.72;5054112;28;20029;-76
2023/09/07 04:38:13;;;;;;;14.63;13.00;;;;;;;17.25;79.56;95305.25;5033932;28;20025;-76
2023/09/07 04:40:39;;;;;;;14.48;13.07;;;;;;;17.42;78.72;95309.59;5052344;28;20044;-76
2023/09/07 04:43:04;;;;;;;16.17;14.15;;;;;;;17.25;79.30;95317.56;5047278;28;20036;-76
2023/09/07 04:45:29;;;;;;;15.57;13.43;;;;;;;17.23;79.58;95309.84;5046788;28;20063;-76
2023/09/07 04:47:55;;;;;;;17.58;14.48;;;;;;;17.20;79.62;95308.34;5032384;28;20029;-72
2023/09/07 04:50:20;;;;;;;15.73;13.95;;;;;;;17.26;79.34;95311.31;5047365;28;20052;-79
2023/09/07 04:52:46;;;;;;;15.10;13.38;;;;;;;17.33;78.74;95307.94;5047237;28;20400;-78
2023/09/07 04:55:11;;;;;;;14.48;13.07;;;;;;;17.42;77.53;95306.97;5053402;28;20021;-78
2023/09/07 04:57:37;;;;;;;14.85;13.23;;;;;;;17.41;77.83;95307.13;5045645;28;20032;-78
2023/09/07 05:00:04;;;;;;;14.38;12.98;;;;;;;17.39;78.42;95317.81;5069133;28;20033;-73
2023/09/07 05:02:30;;;;;;;15.23;12.00;;;;;;;17.35;77.96;95313.81;5071474;28;20032;-73
2023/09/07 05:04:55;;;;;;;14.02;12.63;;;;;;;17.34;77.66;95325.31;5053598;28;20505;-73
2023/09/07 05:07:21;;;;;;;14.48;12.55;;;;;;;17.38;77.52;95323.19;5036421;28;20037;-73
2023/09/07 05:09:47;;;;;;;15.68;12.77;;;;;;;17.53;78.07;95332.16;5052576;28;20028;-73
2023/09/07 05:12:14;;;;;;;14.82;13.32;;;;;;;17.45;78.44;95323.41;5070104;28;20029;-73
2023/09/07 05:14:39;;;;;;;14.93;13.43;;;;;;;17.46;78.30;95332.91;5068753;28;20064;-73
2023/09/07 05:17:04;;;;;;;14.80;13.32;;;;;;;17.43;78.08;95326.19;5047810;28;20036;-73
2023/09/07 05:19:31;;;;;;;19.00;14.18;;;;;;;17.45;77.99;95323.41;5066872;28;20032;-77
2023/09/07 05:21:56;;;;;;;14.57;12.77;;;;;;;17.73;77.00;95335.34;5033074;28;20040;-74
2023/09/07 05:24:21;;;;;;;14.77;12.70;;;;;;;17.65;78.16;95336.13;5040400;28;20036;-75
2023/09/07 05:26:47;;;;;;;14.00;12.48;;;;;;;17.62;76.96;95330.38;5038456;28;20041;-75
2023/09/07 05:29:13;;;;;;;16.35;12.60;;;;;;;17.62;78.04;95335.63;5050774;28;20376;-75
2023/09/07 05:31:38;;;;;;;15.00;12.45;;;;;;;17.55;77.91;95329.34;5065041;28;20045;-75
2023/09/07 05:34:04;;;;;;;14.90;11.90;;;;;;;17.77;77.20;95334.03;5055346;28;20058;-76
2023/09/07 05:36:29;;;;;;;13.32;11.93;;;;;;;17.73;76.96;95339.78;5055147;28;20024;-75
2023/09/07 05:38:55;;;;;;;14.65;12.57;;;;;;;17.84;76.36;95332.47;5070754;28;20487;-73
2023/09/07 05:41:20;;;;;;;12.95;11.45;;;;;;;17.84;74.78;95329.84;5069160;28;20040;-76
2023/09/07 05:43:46;;;;;;;12.90;11.65;;;;;;;18.02;75.30;95339.41;5067783;28;20029;-75
2023/09/07 05:46:11;;;;;;;13.02;11.82;;;;;;;18.03;75.15;95328.75;5046983;28;20032;-75
2023/09/07 05:48:37;;;;;;;13.20;11.90;;;;;;;18.15;75.79;95325.81;5048278;28;20441;-75
2023/09/07 05:51:03;;;;;;;14.43;11.70;;;;;;;18.12;76.46;95340.09;5038202;28;20049;-77
2023/09/07 05:53:29;;;;;;;13.30;11.82;;;;;;;18.19;74.42;95330.59;5038681;28;20032;-74
2023/09/07 05:55:54;;;;;;;11.57;10.48;;;;;;;18.27;74.25;95320.06;5054202;28;20056;-77
2023/09/07 05:58:20;;;;;;;14.25;11.80;;;;;;;18.39;74.39;95328.50;5052882;28;20066;-77
2023/09/07 06:00:45;;;;;;;13.13;11.82;;;;;;;18.52;73.63;95323.56;5070870;28;20028;-76
2023/09/07 06:03:10;;;;;;;12.02;10.75;;;;;;;18.48;73.36;95311.72;5034093;28;20029;-75
2023/09/07 06:05:36;;;;;;;12.00;10.80;;;;;;;18.64;72.38;95329.34;5053441;28;20032;-73
2023/09/07 06:08:02;;;;;;;10.65;9.55;;;;;;;18.56;71.50;95325.88;5051359;28;20025;-73
2023/09/07 06:10:29;;;;;;;11.48;10.27;;;;;;;18.66;70.61;95308.09;5062050;28;20025;-73
2023/09/07 06:12:54;;;;;;;9.38;8.48;;;;;;;18.97;67.32;95329.31;5054342;28;20111;-73
2023/09/07 06:15:20;;;;;;;9.40;8.45;;;;;;;19.06;67.00;95323.09;5069534;28;20024;-73
2023/09/07 06:17:45;;;;;;;9.38;8.40;;;;;;;19.09;67.02;95325.38;5070883;28;20036;-73
2023/09/07 06:20:11;;;;;;;9.70;8.70;;;;;;;18.95;68.42;95302.38;5054341;28;20587;-73
2023/09/07 06:22:36;;;;;;;11.18;8.65;;;;;;;19.33;67.24;95334.22;5054534;28;20468;-73
2023/09/07 06:25:02;;;;;;;9.50;7.97;;;;;;;19.66;65.21;95336.78;5070951;28;20035;-73
2023/09/07 06:27:28;;;;;;;8.57;7.78;;;;;;;19.89;63.42;95342.13;5036223;28;20067;-73
2023/09/07 06:29:53;;;;;;;8.18;7.10;;;;;;;20.12;61.10;95342.19;5068670;28;20446;-73
2023/09/07 06:32:19;;;;;;;8.18;7.38;;;;;;;20.06;62.87;95338.44;5051159;28;20029;-73
2023/09/07 06:34:44;;;;;;;8.23;6.32;;;;;;;20.03;61.36;95322.94;5052052;28;20054;-73
2023/09/07 06:37:11;;;;;;;8.85;6.53;;;;;;;20.13;60.85;95342.00;5051784;28;20044;-74
2023/09/07 06:39:37;;;;;;;7.72;6.93;;;;;;;20.39;60.86;95340.88;5051945;28;20481;-74
2023/09/07 06:42:03;;;;;;;8.13;7.13;;;;;;;20.26;61.04;95329.09;5036087;28;20098;-74
2023/09/07 06:44:29;;;;;;;10.32;7.30;;;;;;;20.37;60.33;95338.41;5070665;28;20300;-74
2023/09/07 06:46:54;;;;;;;7.57;6.78;;;;;;;20.45;59.92;95348.09;5070489;28;20512;-74
2023/09/07 06:49:19;;;;;;;8.35;7.22;;;;;;;20.53;58.56;95329.59;5053478;28;20375;-73
2023/09/07 06:51:45;;;;;;;8.68;6.80;;;;;;;20.83;59.02;95346.34;5053798;28;20032;-73
2023/09/07 06:54:10;;;;;;;9.93;7.68;;;;;;;21.00;60.26;95340.94;5053595;28;20029;-73
2023/09/07 06:56:36;;;;;;;8.82;7.88;;;;;;;21.18;61.88;95342.25;5053811;28;20032;-74
2023/09/07 06:59:02;;;;;;;8.75;7.88;;;;;;;21.50;59.25;95342.94;5053574;28;20058;-74
2023/09/07 07:01:27;;;;;;;9.00;7.85;;;;;;;21.24;58.84;95331.97;5037032;28;20041;-74
2023/09/07 07:03:53;;;;;;;9.77;8.20;;;;;;;21.33;59.62;95341.44;5053510;28;20061;-74
2023/09/07 07:06:19;;;;;;;8.63;7.72;;;;;;;21.37;59.33;95333.03;5070122;28;20028;-74
2023/09/07 07:08:44;;;;;;;9.80;7.70;;;;;;;21.53;58.47;95341.75;5053470;28;20406;-74
2023/09/07 07:11:10;;;;;;;9.93;7.93;;;;;;;21.76;57.46;95336.41;5053389;28;20040;-74
2023/09/07 07:13:36;;;;;;;10.30;6.95;;;;;;;21.69;58.37;95340.78;5070048;28;20032;-74
2023/09/07 07:16:03;;;;;;;9.05;7.70;;;;;;;21.94;58.15;95343.94;5053341;28;20452;-74
2023/09/07 07:18:29;;;;;;;7.40;6.70;;;;;;;21.69;57.47;95346.88;5053700;28;20086;-74
2023/09/07 07:20:54;;;;;;;8.10;7.05;;;;;;;21.75;56.05;95346.13;5036514;28;20036;-74
2023/09/07 07:23:20;;;;;;;7.97;6.90;;;;;;;21.64;57.30;95349.25;5036030;28;20020;-74
2023/09/07 07:25:45;;;;;;;7.68;6.88;;;;;;;21.30;58.65;95355.84;5069823;28;20040;-74
2023/09/07 07:28:10;;;;;;;10.43;7.00;;;;;;;21.54;57.67;95352.16;5069865;28;20029;-74
2023/09/07 07:30:37;;;;;;;7.65;6.50;;;;;;;21.42;58.26;95343.03;5053116;28;20024;-74
2023/09/07 07:33:03;;;;;;;7.68;6.88;;;;;;;21.39;57.53;95352.13;5069789;28;20470;-74
2023/09/07 07:35:32;;;;;;;8.05;6.78;;;;;;;21.41;56.24;95358.06;5052857;28;20020;-74
2023/09/07 07:37:57;;;;;;;7.78;6.47;;;;;;;21.47;56.81;95353.06;5052934;28;20036;-74
2023/09/07 07:40:23;;;;;;;8.15;7.00;;;;;;;21.54;57.29;95361.94;5052867;28;20028;-74
2023/09/07 07:42:48;;;;;;;8.38;6.85;;;;;;;21.51;55.45;95333.22;5052940;28;20036;-74
2023/09/07 07:45:14;;;;;;;8.15;6.97;;;;;;;21.72;56.64;95353.63;5069702;28;20025;-74
2023/09/07 07:47:40;;;;;;;9.93;6.82;;;;;;;21.67;57.32;95354.16;5069533;28;20033;-74
2023/09/07 07:50:06;;;;;;;10.13;7.10;;;;;;;21.17;57.70;95326.56;5052937;28;20075;-74
2023/09/07 07:52:32;;;;;;;9.50;6.50;;;;;;;21.29;56.83;95348.94;5036476;28;20490;-74
2023/09/07 07:54:58;;;;;;;9.18;6.40;;;;;;;21.26;56.43;95346.66;5053175;28;20143;-74
2023/09/07 07:57:24;;;;;;;7.40;6.65;;;;;;;21.17;56.87;95350.34;5069680;28;20051;-74
2023/09/07 07:59:49;;;;;;;8.90;6.80;;;;;;;21.15;57.02;95345.25;5052773;28;20035;-74
2023/09/07 08:02:14;;;;;;;7.65;6.82;;;;;;;21.23;57.74;95351.44;5036255;28;20036;-74
2023/09/07 08:04:40;;;;;;;8.73;6.63;;;;;;;21.33;56.86;95347.56;5052739;28;20055;-74
2023/09/07 08:07:08;;;;;;;9.32;6.53;;;;;;;21.71;55.22;95346.72;5069633;28;20025;-74
2023/09/07 08:09:33;;;;;;;10.07;6.32;;;;;;;21.54;55.83;95344.25;5070622;28;20032;-74
2023/09/07 08:12:02;;;;;;;8.30;6.50;;;;;;;21.47;54.81;95347.78;5052944;28;20025;-74
2023/09/07 08:14:28;;;;;;;6.75;6.05;;;;;;;21.46;55.21;95333.75;5069347;28;20438;-74
2023/09/07 08:16:53;;;;;;;9.50;6.20;;;;;;;21.66;54.03;95341.16;5052754;28;20042;-74
2023/09/07 08:19:19;;;;;;;8.40;5.90;;;;;;;21.61;53.89;95317.88;5052631;28;20033;-74
2023/09/07 08:21:46;;;;;;;7.15;6.45;;;;;;;22.02;54.18;95346.50;5035983;28;20029;-74
2023/09/07 08:24:11;;;;;;;8.75;6.75;;;;;;;22.30;55.28;95323.63;5052812;28;20130;-74
2023/09/07 08:26:38;;;;;;;7.72;6.20;;;;;;;22.46;54.64;95324.44;5069372;28;20103;-74
2023/09/07 08:29:08;;;;;;;9.05;6.55;;;;;;;22.66;54.28;95328.06;5069176;28;20082;-74
2023/09/07 08:31:33;;;;;;;8.93;6.88;;;;;;;22.52;54.49;95324.47;5053183;28;20028;-74
2023/09/07 08:34:02;;;;;;;7.57;6.68;;;;;;;22.43;54.22;95328.25;5036892;28;20043;-74
2023/09/07 08:36:29;;;;;;;6.68;5.97;;;;;;;;;;5056842;28;20029;-74
2023/09/07 08:38:55;;;;;;;6.93;5.90;;;;;;;22.57;51.76;95308.03;5074250;28;20039;-75
2023/09/07 08:41:21;;;;;;;8.43;5.68;;;;;;;22.45;50.06;95305.06;5056421;28;20059;-74
2023/09/07 08:43:46;;;;;;;5.55;5.05;;;;;;;22.77;49.21;95329.41;5056135;28;20601;-74
2023/09/07 08:46:20;;;;;;;7.55;5.60;;;;;;;22.55;49.44;95311.88;5056349;28;20044;-74
2023/09/07 08:48:46;;;;;;;6.10;5.10;;;;;;;22.52;48.94;95324.47;5056336;28;20098;-74
2023/09/07 08:51:12;;;;;;;7.47;4.90;;;;;;;22.70;48.00;95318.72;5039762;28;20052;-75
2023/09/07 08:53:39;;;;;;;5.85;4.80;;;;;;;22.66;48.83;95304.25;5056221;28;20079;-75
2023/09/07 08:56:04;;;;;;;6.10;4.60;;;;;;;22.90;48.56;95318.09;5039514;28;20498;-75
2023/09/07 08:58:31;;;;;;;6.07;5.00;;;;;;;22.74;47.86;95309.41;5072757;28;20044;-75
2023/09/07 09:00:57;;;;;;;8.18;5.03;;;;;;;22.68;47.31;95315.47;5056169;28;20028;-74
2023/09/07 09:03:23;;;;;;;8.32;5.32;;;;;;;22.78;48.28;95309.03;5055984;28;20032;-74
2023/09/07 09:05:48;;;;;;;7.10;4.88;;;;;;;22.74;48.49;95322.66;5039335;28;20025;-74
2023/09/07 09:08:14;;;;;;;6.25;5.35;;;;;;;22.79;48.43;95324.75;5039161;28;20101;-75
2023/09/07 09:10:40;;;;;;;7.70;5.65;;;;;;;22.83;48.16;95311.94;5055718;28;20025;-75
2023/09/07 09:13:06;;;;;;;7.95;6.00;;;;;;;22.70;47.80;95323.22;5039267;28;20199;-74
2023/09/07 09:15:31;;;;;;;6.15;5.18;;;;;;;22.74;48.44;95321.84;5039006;28;20490;-75
2023/09/07 09:17:57;;;;;;;6.88;5.22;;;;;;;22.55;48.08;95288.06;5039225;28;20048;-75
2023/09/07 09:20:23;;;;;;;7.00;5.03;;;;;;;22.49;48.48;95324.03;5055401;28;20029;-75
2023/09/07 09:22:53;;;;;;;5.53;4.75;;;;;;;22.42;49.10;95317.84;5038818;28;20529;-75
2023/09/07 09:25:18;;;;;;;5.82;4.85;;;;;;;;;;5055458;28;20036;-75
2023/09/07 09:27:44;;;;;;;5.40;4.90;;;;;;;22.78;46.94;95314.31;5073844;28;20028;-75
2023/09/07 09:30:10;;;;;;;5.40;4.90;;;;;;;22.74;49.88;95312.06;5071923;28;20033;-75
2023/09/07 09:32:35;;;;;;;7.13;5.47;;;;;;;22.72;50.32;95306.13;5038985;28;20032;-75
2023/09/07 09:35:05;;;;;;;10.32;5.32;;;;;;;23.03;46.95;95309.47;5072025;28;20494;-74
2023/09/07 09:37:31;;;;;;;5.53;5.00;;;;;;;23.14;46.60;95309.75;5055851;28;20557;-75
2023/09/07 09:39:57;;;;;;;5.00;4.50;;;;;;;23.22;45.62;95303.50;5055030;28;20448;-75
2023/09/07 09:42:23;;;;;;;7.72;5.22;;;;;;;22.83;46.57;95269.56;5054917;28;20525;-75
2023/09/07 09:44:48;;;;;;;5.78;4.95;;;;;;;23.19;46.08;95298.59;5038282;28;20068;-75
2023/09/07 09:47:14;;;;;;;6.60;5.22;;;;;;;23.37;46.60;95303.38;5054678;28;20025;-75
2023/09/07 09:49:39;;;;;;;5.93;5.07;;;;;;;23.33;47.80;95299.50;5054907;28;20049;-75
2023/09/07 09:52:05;;;;;;;6.68;4.78;;;;;;;23.46;46.41;95285.47;5038177;28;20036;-75
2023/09/07 09:54:33;;;;;;;5.78;4.88;;;;;;;23.54;47.24;95288.81;5054936;28;20024;-75
2023/09/07 09:56:58;;;;;;;5.93;4.85;;;;;;;23.15;47.18;95284.06;5038229;28;20043;-75
2023/09/07 09:59:24;;;;;;;5.70;4.25;;;;;;;23.27;44.73;95276.44;5038176;28;20036;-75
2023/09/07 10:01:50;;;;;;;6.03;4.22;;;;;;;23.15;45.33;95284.06;5038200;28;20031;-75
2023/09/07 10:04:17;;;;;;;8.40;4.80;;;;;;;23.12;45.33;95277.34;5038211;28;20036;-75
2023/09/07 10:06:56;;;;;;;8.35;4.53;;;;;;;23.14;45.11;95280.59;5071474;28;20082;-75
2023/09/07 10:09:22;;;;;;;6.55;4.38;;;;;;;23.11;45.19;95286.28;5054782;28;20028;-74
2023/09/07 10:11:54;;;;;;;6.45;4.07;;;;;;;23.23;44.81;95275.97;5038065;28;20025;-75
2023/09/07 10:14:19;;;;;;;5.78;4.18;;;;;;;23.26;45.10;95264.16;5054592;28;20043;-75
2023/09/07 10:16:51;;;;;;;5.10;4.25;;;;;;;23.52;44.33;95272.28;5054835;28;20032;-75
2023/09/07 10:19:20;;;;;;;5.05;4.00;;;;;;;23.45;45.70;95268.75;5055239;28;20028;-75
2023/09/07 10:21:46;;;;;;;5.47;4.43;;;;;;;23.80;44.66;95268.78;5071106;28;20085;-75
2023/09/07 10:24:24;;;;;;;4.57;4.10;;;;;;;23.99;43.42;95269.88;5054237;28;20127;-75
2023/09/07 10:27:00;;;;;;;4.47;3.95;;;;;;;23.56;45.32;95268.22;5054607;28;20063;-75
2023/09/07 10:29:26;;;;;;;6.00;3.78;;;;;;;23.42;44.63;95254.06;5070953;28;20490;-75
2023/09/07 10:31:51;;;;;;;6.85;3.95;;;;;;;23.66;42.89;95267.06;5054488;28;20028;-75
2023/09/07 10:34:17;;;;;;;9.07;3.90;;;;;;;23.69;43.51;95264.00;5070855;28;20491;-75
2023/09/07 10:36:43;;;;;;;5.28;4.20;;;;;;;23.67;43.75;95266.03;5054259;28;20035;-75
2023/09/07 10:39:08;;;;;;;5.85;4.38;;;;;;;23.69;44.63;95251.56;5054051;28;20047;-75
2023/09/07 10:41:43;;;;;;;5.90;4.50;;;;;;;23.58;43.49;95252.13;5054075;28;20111;-75
2023/09/07 10:44:13;;;;;;;7.40;4.63;;;;;;;23.71;43.37;95261.97;5054335;28;20107;-75
2023/09/07 10:46:39;;;;;;;6.50;4.80;;;;;;;23.67;42.87;95266.03;5070820;28;20036;-75
2023/09/07 10:49:06;;;;;;;6.07;4.75;;;;;;;23.38;42.92;95267.94;5053796;28;20068;-75
2023/09/07 10:51:32;;;;;;;7.63;4.90;;;;;;;23.69;43.95;95264.00;5054016;28;20405;-75
2023/09/07 10:53:57;;;;;;;6.07;4.30;;;;;;;23.60;43.77;95268.66;5070486;28;20069;-75
2023/09/07 10:56:25;;;;;;;5.10;4.20;;;;;;;23.67;43.12;95273.97;5053804;28;20032;-75
2023/09/07 10:58:53;;;;;;;5.05;4.30;;;;;;;23.33;44.16;95249.13;5052957;28;20039;-75
2023/09/07 11:01:20;;;;;;;4.85;4.30;;;;;;;23.52;43.52;95251.06;5053641;28;20032;-75
2023/09/07 11:03:45;;;;;;;5.28;4.07;;;;;;;23.49;43.93;95264.72;5070301;28;20033;-75
2023/09/07 11:06:14;;;;;;;5.45;4.22;;;;;;;23.17;43.67;95272.28;5036972;28;20043;-75
2023/09/07 11:08:40;;;;;;;6.57;4.45;;;;;;;23.24;43.96;95261.72;5037203;28;20072;-75
2023/09/07 11:11:05;;;;;;;9.23;4.78;;;;;;;23.22;44.93;95265.59;5053405;28;20028;-75
2023/09/07 11:13:31;;;;;;;7.13;4.63;;;;;;;23.37;45.56;95271.56;5053622;28;20048;-75
2023/09/07 11:15:57;;;;;;;5.20;4.55;;;;;;;23.39;45.29;95254.47;5053287;28;20052;-75
2023/09/07 11:18:23;;;;;;;7.28;4.95;;;;;;;23.42;45.09;95269.97;5036794;28;20139;-75
2023/09/07 11:20:49;;;;;;;7.22;4.45;;;;;;;23.40;44.57;95265.88;5053175;28;20512;-75
2023/09/07 11:23:17;;;;;;;7.63;4.95;;;;;;;23.43;44.67;95257.56;5036653;28;20090;-75